Time;durP1;ratioP1;P1;durP2;ratioP2;P2;SDS_P1;SDS_P2;PMS_P1;PMS_P2;Temp;Humidity;BMP_temperature;BMP_pressure;BME280_temperature;BME280_humidity;BME280_pressure;Samples;Min_cycle;Max_cycle;Signal;HPM_P1;HPM_P2
2022/05/24 00:00:27;;;;;;;7.65;5.90;;;14.20;99.90;;;;;;5047673;28;20068;-67
2022/05/24 00:02:53;;;;;;;7.60;6.07;;;14.10;99.90;;;;;;5030567;28;20164;-67
2022/05/24 00:05:20;;;;;;;7.07;5.50;;;14.00;99.90;;;;;;5028670;28;20057;-67
2022/05/24 00:07:46;;;;;;;10.23;6.03;;;14.10;99.90;;;;;;5027601;28;20054;-67
2022/05/24 00:10:16;;;;;;;9.68;5.70;;;14.00;99.90;;;;;;5030087;28;20076;-67
2022/05/24 00:12:42;;;;;;;8.25;5.82;;;14.10;99.90;;;;;;5032302;28;20192;-67
2022/05/24 00:15:19;;;;;;;11.52;6.55;;;14.00;99.90;;;;;;5039041;28;20050;-67
2022/05/24 00:17:53;;;;;;;8.77;6.03;;;14.10;99.90;;;;;;5029421;28;20061;-67
2022/05/24 00:20:20;;;;;;;9.07;6.00;;;14.00;99.90;;;;;;5026950;28;20082;-67
2022/05/24 00:22:45;;;;;;;9.13;6.28;;;14.10;99.90;;;;;;5046808;28;20041;-67
2022/05/24 00:25:12;;;;;;;9.30;6.10;;;14.00;99.90;;;;;;5033810;28;20091;-67
2022/05/24 00:27:38;;;;;;;7.88;5.93;;;14.00;99.90;;;;;;5032133;28;20080;-67
2022/05/24 00:30:05;;;;;;;7.03;4.85;;;14.10;99.90;;;;;;5026230;28;20046;-67
2022/05/24 00:32:31;;;;;;;8.48;5.85;;;14.00;99.90;;;;;;5030857;28;20080;-67
2022/05/24 00:34:57;;;;;;;9.23;6.00;;;13.90;99.90;;;;;;5031405;28;20131;-67
2022/05/24 00:37:27;;;;;;;11.43;5.60;;;13.90;99.90;;;;;;5027586;28;20057;-67
2022/05/24 00:39:52;;;;;;;9.00;5.72;;;13.90;99.90;;;;;;5031614;28;20103;-67
2022/05/24 00:42:22;;;;;;;9.95;5.72;;;13.80;99.90;;;;;;5033070;28;20045;-67
2022/05/24 00:45:12;;;;;;;9.52;5.75;;;13.90;99.90;;;;;;5027632;28;20046;-67
2022/05/24 00:47:42;;;;;;;7.85;5.30;;;13.80;99.90;;;;;;5011245;28;20050;-67
2022/05/24 00:50:25;;;;;;;9.95;5.50;;;13.90;99.90;;;;;;5029955;28;20045;-67
2022/05/24 00:52:58;;;;;;;8.25;5.43;;;13.90;99.90;;;;;;5048878;28;20057;-67
2022/05/24 00:55:25;;;;;;;8.25;4.88;;;13.80;99.90;;;;;;5031388;28;20057;-67
2022/05/24 00:57:54;;;;;;;7.68;4.85;;;13.90;99.90;;;;;;5029664;28;20056;-67
2022/05/24 01:00:21;;;;;;;7.80;4.53;;;13.80;99.90;;;;;;5031801;28;20049;-67
2022/05/24 01:02:48;;;;;;;8.23;4.47;;;13.70;99.90;;;;;;5028820;28;20072;-67
2022/05/24 01:05:24;;;;;;;10.95;4.03;;;13.90;99.90;;;;;;5026125;28;20037;-67
2022/05/24 01:07:50;;;;;;;7.70;4.40;;;13.70;99.90;;;;;;5027091;28;20045;-67
2022/05/24 01:10:21;;;;;;;6.22;4.35;;;13.70;99.90;;;;;;5027878;28;20064;-67
2022/05/24 01:12:50;;;;;;;5.45;3.97;;;13.70;99.90;;;;;;5042511;28;20047;-67
2022/05/24 01:15:17;;;;;;;6.65;4.60;;;13.80;99.90;;;;;;5042382;28;20063;-67
2022/05/24 01:17:44;;;;;;;5.45;3.97;;;13.70;99.90;;;;;;5027605;28;20053;-67
2022/05/24 01:20:13;;;;;;;7.57;4.40;;;13.80;99.90;;;;;;5028876;28;20049;-67
2022/05/24 01:22:55;;;;;;;6.68;4.90;;;13.70;99.90;;;;;;5028801;28;20109;-67
2022/05/24 01:25:34;;;;;;;6.78;4.47;;;13.60;99.90;;;;;;5026620;28;20080;-67
2022/05/24 01:28:04;;;;;;;6.35;4.43;;;13.70;99.90;;;;;;5042960;28;20075;-67
2022/05/24 01:30:29;;;;;;;7.28;4.63;;;13.70;99.90;;;;;;5030942;28;20116;-67
2022/05/24 01:38:24;;;;;;;9.02;6.72;;;13.80;99.90;;;;;;5043164;28;20109;-67
2022/05/24 01:40:52;;;;;;;11.05;8.05;;;13.60;99.90;;;;;;5047864;28;20037;-67
2022/05/24 01:43:21;;;;;;;11.63;7.70;;;13.70;99.90;;;;;;5019175;28;20080;-67
2022/05/24 01:46:02;;;;;;;13.13;8.77;;;13.60;99.90;;;;;;5027984;28;20477;-67
2022/05/24 01:48:42;;;;;;;14.13;9.50;;;13.70;99.90;;;;;;5046844;28;20033;-67
2022/05/24 01:51:11;;;;;;;13.50;10.35;;;13.60;99.90;;;;;;5023545;28;20041;-67
2022/05/24 01:53:42;;;;;;;13.15;10.85;;;13.60;99.90;;;;;;5044347;28;20072;-67
2022/05/24 01:56:13;;;;;;;12.98;11.18;;;13.60;99.90;;;;;;5031363;28;20041;-67
2022/05/24 01:58:41;;;;;;;16.60;12.07;;;13.50;99.90;;;;;;5030421;28;20053;-67
2022/05/24 02:01:16;;;;;;;17.48;12.73;;;13.50;99.90;;;;;;5043857;28;20056;-67
2022/05/24 02:03:42;;;;;;;15.55;11.93;;;13.50;99.90;;;;;;5028133;28;20102;-67
2022/05/24 02:06:24;;;;;;;20.45;12.20;;;13.50;99.90;;;;;;5029067;28;20088;-67
2022/05/24 02:08:51;;;;;;;17.15;12.75;;;13.50;99.90;;;;;;5024234;28;20041;-67
2022/05/24 02:11:20;;;;;;;18.77;13.38;;;13.60;99.90;;;;;;5026915;28;20124;-67
2022/05/24 02:13:48;;;;;;;16.40;12.05;;;13.60;99.90;;;;;;5028516;28;20393;-67
2022/05/24 02:16:17;;;;;;;13.77;11.07;;;13.60;99.90;;;;;;5043692;28;20076;-67
2022/05/24 02:18:46;;;;;;;17.05;12.30;;;13.60;99.90;;;;;;5029835;28;20122;-67
2022/05/24 02:21:12;;;;;;;17.13;13.15;;;13.50;99.90;;;;;;5029354;28;20049;-67
2022/05/24 02:23:49;;;;;;;14.35;12.00;;;13.60;99.90;;;;;;5027756;28;20052;-67
2022/05/24 02:26:17;;;;;;;14.93;10.88;;;13.70;99.90;;;;;;5027684;28;20052;-67
2022/05/24 02:28:43;;;;;;;16.65;12.30;;;13.50;99.90;;;;;;5036070;28;20049;-67
2022/05/24 02:31:13;;;;;;;14.43;12.30;;;13.50;99.90;;;;;;5026779;28;20367;-67
2022/05/24 02:33:39;;;;;;;;;;;13.60;99.90;;;;;;5028465;28;20072;-67
2022/05/24 02:36:06;;;;;;;14.93;11.63;;;13.50;99.90;;;;;;5055704;28;19921;-67
2022/05/24 02:38:33;;;;;;;17.70;12.60;;;13.60;99.90;;;;;;5028559;28;20041;-67
2022/05/24 02:43:44;;;;;;;17.00;11.95;;;13.70;99.90;;;;;;5024404;28;20053;-67
2022/05/24 02:46:10;;;;;;;16.73;13.93;;;13.70;99.90;;;;;;5010400;28;20045;-67
2022/05/24 02:48:36;;;;;;;20.02;15.60;;;13.60;99.90;;;;;;5026544;28;20063;-67
2022/05/24 02:51:09;;;;;;;22.48;17.20;;;13.60;99.90;;;;;;5028546;28;20072;-67
2022/05/24 02:53:36;;;;;;;21.23;16.92;;;13.80;99.90;;;;;;5042007;28;20041;-67
2022/05/24 02:56:05;;;;;;;24.17;17.27;;;13.70;99.90;;;;;;5047424;28;20053;-67
2022/05/24 02:58:31;;;;;;;21.58;17.27;;;13.70;99.90;;;;;;5044416;28;20046;-67
2022/05/24 03:00:57;;;;;;;26.20;18.27;;;13.80;99.90;;;;;;5029629;28;20398;-67
2022/05/24 03:03:22;;;;;;;24.23;17.88;;;13.70;99.90;;;;;;5048381;28;20041;-67
2022/05/24 03:05:48;;;;;;;23.63;17.77;;;13.70;99.90;;;;;;5048272;28;20041;-67
2022/05/24 03:10:58;;;;;;;26.38;19.02;;;13.80;99.90;;;;;;5049435;28;20061;-67
2022/05/24 03:16:10;;;;;;;27.40;20.40;;;13.90;99.90;;;;;;5022847;28;20129;-67
2022/05/24 03:18:36;;;;;;;26.23;19.88;;;13.90;99.90;;;;;;5014281;28;20049;-67
2022/05/24 03:21:01;;;;;;;24.60;19.90;;;13.80;99.90;;;;;;5006784;28;20411;-67
2022/05/24 03:23:27;;;;;;;25.33;19.48;;;13.90;99.90;;;;;;5007865;28;20042;-67
2022/05/24 03:25:53;;;;;;;26.80;20.95;;;14.00;99.90;;;;;;5009901;28;20064;-67
2022/05/24 03:28:20;;;;;;;28.70;23.17;;;13.90;99.90;;;;;;5010721;28;20045;-67
2022/05/24 03:30:46;;;;;;;30.50;22.65;;;14.00;99.90;;;;;;5012058;28;20046;-67
2022/05/24 03:33:12;;;;;;;30.38;23.67;;;14.10;99.90;;;;;;5008998;28;20084;-67
2022/05/24 03:35:38;;;;;;;31.02;23.92;;;13.90;99.90;;;;;;5011909;28;20050;-67
2022/05/24 03:38:04;;;;;;;29.98;22.52;;;14.10;99.90;;;;;;4993283;28;20050;-67
2022/05/24 03:40:30;;;;;;;32.58;24.15;;;14.10;99.90;;;;;;5011453;28;20070;-67
2022/05/24 03:42:56;;;;;;;33.00;24.77;;;14.00;99.90;;;;;;5009109;28;20041;-67
2022/05/24 03:45:22;;;;;;;32.88;24.70;;;14.10;99.90;;;;;;5028127;28;20088;-67
2022/05/24 03:47:48;;;;;;;31.95;25.27;;;14.10;99.90;;;;;;5009420;28;20054;-67
2022/05/24 03:50:15;;;;;;;29.33;23.77;;;14.30;99.90;;;;;;5026165;28;20050;-67
2022/05/24 03:52:41;;;;;;;29.63;24.67;;;14.10;99.90;;;;;;5009348;28;20049;-67
2022/05/24 03:55:07;;;;;;;29.63;22.60;;;14.10;99.90;;;;;;5008717;28;20461;-67
2022/05/24 04:00:19;;;;;;;30.00;24.85;;;14.20;99.90;;;;;;4981931;28;20406;-67
2022/05/24 04:02:45;;;;;;;32.30;23.90;;;14.20;99.90;;;;;;5010420;28;20054;-67
2022/05/24 04:05:11;;;;;;;31.08;24.40;;;14.20;99.90;;;;;;5008950;28;20080;-67
2022/05/24 04:07:38;;;;;;;31.10;24.25;;;14.20;99.90;;;;;;5009148;28;20038;-67
2022/05/24 04:10:06;;;;;;;30.33;24.35;;;14.30;99.90;;;;;;4991858;28;20046;-67
2022/05/24 04:12:32;;;;;;;29.85;22.83;;;14.30;99.90;;;;;;5025872;28;20094;-67
2022/05/24 04:14:57;;;;;;;29.15;22.48;;;14.20;99.90;;;;;;5009406;28;20053;-67
2022/05/24 04:17:24;;;;;;;31.55;23.88;;;14.20;99.90;;;;;;5009174;28;20538;-67
2022/05/24 04:19:49;;;;;;;28.15;24.25;;;14.30;99.90;;;;;;5008784;28;20125;-67
2022/05/24 04:22:15;;;;;;;28.13;21.83;;;14.30;99.90;;;;;;4992719;28;20045;-67
2022/05/24 04:24:41;;;;;;;30.38;24.10;;;14.30;99.90;;;;;;5008855;28;20104;-67
2022/05/24 04:27:07;;;;;;;26.92;21.70;;;14.40;99.90;;;;;;5003325;28;20052;-67
2022/05/24 04:29:33;;;;;;;29.13;22.52;;;14.30;99.90;;;;;;5023285;28;20072;-67
2022/05/24 04:31:59;;;;;;;26.73;22.80;;;14.40;99.90;;;;;;5027291;28;20049;-67
2022/05/24 04:34:24;;;;;;;25.77;22.17;;;14.40;99.90;;;;;;5029583;28;20041;-66
2022/05/24 04:36:50;;;;;;;25.65;20.98;;;14.30;99.90;;;;;;4998990;28;20107;-63
2022/05/24 04:39:17;;;;;;;25.63;20.58;;;14.30;99.90;;;;;;5025355;28;20057;-63
2022/05/24 04:44:28;;;;;;;24.70;20.85;;;14.30;99.90;;;;;;5025946;28;20513;-64
2022/05/24 04:47:08;;;;;;;24.15;20.58;;;14.40;99.90;;;;;;5023119;28;20058;-65
2022/05/24 04:49:37;;;;;;;24.73;21.98;;;14.40;99.90;;;;;;5013097;28;20105;-62
2022/05/24 04:52:04;;;;;;;27.53;22.10;;;14.40;99.90;;;;;;5024728;28;20049;-63
2022/05/24 04:54:30;;;;;;;31.45;24.83;;;14.40;99.90;;;;;;5021905;28;20037;-63
2022/05/24 04:56:56;;;;;;;27.25;22.73;;;14.40;99.90;;;;;;5012992;28;20068;-64
2022/05/24 04:59:22;;;;;;;29.05;21.65;;;14.30;99.90;;;;;;5015647;28;20458;-63
2022/05/24 05:01:51;;;;;;;29.98;23.77;;;14.40;99.90;;;;;;5012091;28;20042;-63
2022/05/24 05:04:18;;;;;;;34.95;24.77;;;14.40;99.90;;;;;;5014236;28;20058;-64
2022/05/24 05:06:44;;;;;;;34.08;24.05;;;14.30;99.90;;;;;;5016324;28;20502;-65
2022/05/24 05:09:11;;;;;;;32.47;24.10;;;14.30;99.90;;;;;;5041054;28;20071;-69
2022/05/24 05:11:38;;;;;;;38.33;25.70;;;14.40;99.90;;;;;;5026193;28;20042;-69
2022/05/24 05:14:04;;;;;;;35.97;25.08;;;14.40;99.90;;;;;;5008800;28;20049;-68
2022/05/24 05:16:30;;;;;;;31.60;24.75;;;14.30;99.90;;;;;;5023289;28;20458;-69
2022/05/24 05:18:56;;;;;;;34.17;24.20;;;14.30;99.90;;;;;;5025003;28;20060;-69
2022/05/24 05:21:22;;;;;;;35.38;24.60;;;14.30;99.90;;;;;;5022249;28;20045;-69
2022/05/24 05:23:48;;;;;;;32.67;25.00;;;14.30;99.90;;;;;;5027397;28;20045;-65
2022/05/24 05:26:14;;;;;;;36.40;25.60;;;14.30;99.90;;;;;;5024725;28;20406;-65
2022/05/24 05:28:41;;;;;;;33.13;24.88;;;14.30;99.90;;;;;;5025003;28;20049;-65
2022/05/24 05:31:16;;;;;;;33.22;24.63;;;14.40;99.90;;;;;;5025040;28;20056;-65
2022/05/24 05:33:43;;;;;;;31.60;25.23;;;14.40;99.90;;;;;;5042958;28;20037;-65
2022/05/24 05:36:09;;;;;;;33.50;25.13;;;14.30;99.90;;;;;;5044959;28;20052;-64
2022/05/24 05:38:35;;;;;;;31.33;23.90;;;14.30;99.90;;;;;;5025024;28;20050;-64
2022/05/24 05:41:01;;;;;;;31.75;24.83;;;14.30;99.90;;;;;;5024960;28;20053;-64
2022/05/24 05:43:27;;;;;;;36.78;24.30;;;14.30;99.90;;;;;;5036810;28;20049;-64
2022/05/24 05:45:54;;;;;;;32.53;23.48;;;14.40;99.90;;;;;;5042947;28;20045;-64
2022/05/24 05:48:20;;;;;;;29.05;21.98;;;14.30;99.90;;;;;;5042521;28;20057;-64
2022/05/24 05:50:47;;;;;;;34.25;22.33;;;14.20;99.90;;;;;;5042651;28;20489;-64
2022/05/24 05:53:14;;;;;;;28.35;20.92;;;14.20;99.90;;;;;;5043372;28;20053;-65
2022/05/24 05:55:41;;;;;;;30.80;24.88;;;14.20;99.90;;;;;;5002812;28;20049;-65
2022/05/24 05:58:07;;;;;;;33.85;22.23;;;14.20;99.90;;;;;;5032886;28;20049;-65
2022/05/24 06:00:34;;;;;;;28.77;20.95;;;14.30;99.90;;;;;;5041593;28;20057;-65
2022/05/24 06:03:00;;;;;;;27.90;21.65;;;14.40;99.90;;;;;;5007832;28;20049;-65
2022/05/24 06:05:25;;;;;;;34.85;22.40;;;14.40;99.90;;;;;;5021908;28;20076;-66
2022/05/24 06:07:51;;;;;;;29.83;20.83;;;14.40;99.90;;;;;;5008031;28;20164;-65
2022/05/24 06:10:17;;;;;;;27.95;18.65;;;14.40;99.90;;;;;;5007580;28;20579;-65
2022/05/24 06:12:42;;;;;;;29.23;18.58;;;14.50;99.90;;;;;;5020766;28;20057;-65
2022/05/24 06:15:09;;;;;;;31.52;19.58;;;14.40;99.90;;;;;;5044792;28;20080;-66
2022/05/24 06:17:49;;;;;;;28.27;19.13;;;14.40;99.90;;;;;;5020725;28;20140;-67
2022/05/24 06:20:17;;;;;;;24.65;18.70;;;14.40;99.90;;;;;;5023383;28;20380;-67
2022/05/24 06:22:43;;;;;;;30.13;18.38;;;14.40;99.90;;;;;;5007084;28;20037;-67
2022/05/24 06:25:09;;;;;;;24.25;18.20;;;14.40;99.90;;;;;;5018620;28;20068;-68
2022/05/24 06:27:35;;;;;;;23.75;17.73;;;14.40;99.90;;;;;;5008045;28;20049;-67
2022/05/24 06:30:01;;;;;;;26.33;18.65;;;14.30;99.90;;;;;;5054749;28;20056;-67
2022/05/24 06:32:27;;;;;;;27.52;18.58;;;14.40;99.90;;;;;;5017650;28;20049;-67
2022/05/24 06:34:53;;;;;;;24.05;17.83;;;14.40;99.90;;;;;;5033136;28;20037;-67
2022/05/24 06:37:19;;;;;;;24.17;17.95;;;14.60;99.90;;;;;;5012289;28;20046;-67
2022/05/24 06:39:46;;;;;;;24.73;17.90;;;14.60;99.90;;;;;;5007927;28;20045;-67
2022/05/24 06:42:12;;;;;;;28.42;18.00;;;14.50;99.90;;;;;;5006908;28;20069;-67
2022/05/24 06:44:37;;;;;;;25.00;16.92;;;14.60;99.90;;;;;;5018106;28;20075;-67
2022/05/24 06:47:03;;;;;;;22.83;17.25;;;14.60;99.90;;;;;;5013052;28;20110;-67
2022/05/24 06:49:29;;;;;;;26.70;17.40;;;14.70;99.90;;;;;;5038418;28;20055;-67
2022/05/24 06:51:55;;;;;;;25.10;17.17;;;14.60;99.90;;;;;;5014694;28;20113;-67
2022/05/24 06:54:20;;;;;;;25.13;18.77;;;14.50;99.90;;;;;;5036952;28;20060;-67
2022/05/24 06:56:46;;;;;;;28.75;17.75;;;14.70;99.90;;;;;;5013022;28;20491;-67
2022/05/24 07:04:41;;;;;;;22.10;17.05;;;14.60;99.90;;;;;;5034777;28;20056;-67
2022/05/24 07:07:07;;;;;;;28.27;18.00;;;14.60;99.90;;;;;;5015514;28;20062;-67
2022/05/24 07:09:33;;;;;;;26.88;18.40;;;14.60;99.90;;;;;;5038554;28;20048;-66
2022/05/24 07:12:00;;;;;;;23.73;17.17;;;14.50;99.90;;;;;;5013919;28;20455;-66
2022/05/24 07:14:26;;;;;;;22.83;17.45;;;14.60;99.90;;;;;;5036498;28;20080;-66
2022/05/24 07:16:52;;;;;;;22.10;17.10;;;14.50;99.90;;;;;;5012691;28;20045;-67
2022/05/24 07:19:18;;;;;;;24.15;17.58;;;14.60;99.90;;;;;;5021594;28;20136;-66
2022/05/24 07:21:44;;;;;;;26.38;16.55;;;14.60;99.90;;;;;;5015083;28;20072;-67
2022/05/24 07:24:10;;;;;;;22.25;16.77;;;14.50;99.90;;;;;;5055762;28;20117;-66
2022/05/24 07:26:36;;;;;;;24.73;16.83;;;14.40;99.90;;;;;;5042062;28;20068;-66
2022/05/24 07:29:03;;;;;;;20.75;17.17;;;14.40;99.90;;;;;;5031389;28;20053;-66
2022/05/24 07:31:30;;;;;;;25.40;16.05;;;14.50;99.90;;;;;;5034089;28;20063;-67
2022/05/24 07:33:59;;;;;;;18.50;16.50;;;14.60;99.90;;;;;;5028370;28;20057;-67
2022/05/24 07:36:25;;;;;;;22.25;17.23;;;14.50;99.90;;;;;;5025418;28;20476;-66
2022/05/24 07:38:50;;;;;;;22.73;15.80;;;14.50;99.90;;;;;;5011874;28;20084;-67
2022/05/24 07:46:45;;;;;;;21.45;15.35;;;14.50;99.90;;;;;;5021939;28;20099;-67
2022/05/24 07:49:10;;;;;;;19.90;15.75;;;14.50;99.90;;;;;;5021300;28;20113;-67
2022/05/24 07:51:36;;;;;;;19.45;14.88;;;14.50;99.90;;;;;;5021883;28;20320;-67
2022/05/24 07:54:02;;;;;;;28.13;15.40;;;14.50;99.90;;;;;;5012205;28;20060;-67
2022/05/24 07:56:28;;;;;;;19.25;14.48;;;14.50;99.90;;;;;;5039520;28;20086;-67
2022/05/24 07:58:54;;;;;;;20.23;14.98;;;14.50;99.90;;;;;;5027730;28;20552;-67
2022/05/24 08:01:20;;;;;;;18.83;15.73;;;14.50;99.90;;;;;;5021121;28;20535;-67
2022/05/24 08:03:46;;;;;;;22.60;15.32;;;14.50;99.90;;;;;;5011217;28;20046;-67
2022/05/24 08:06:12;;;;;;;19.88;14.55;;;14.50;99.90;;;;;;5021291;28;20583;-66
2022/05/24 08:08:38;;;;;;;18.00;14.25;;;14.60;99.90;;;;;;5008710;28;20052;-66
2022/05/24 08:11:05;;;;;;;17.92;14.05;;;14.60;99.90;;;;;;5023346;28;20308;-66
2022/05/24 08:13:31;;;;;;;18.60;13.75;;;14.50;99.90;;;;;;5041091;28;20063;-66
2022/05/24 08:15:57;;;;;;;17.08;13.82;;;14.70;99.90;;;;;;5024079;28;20089;-66
2022/05/24 08:18:24;;;;;;;17.42;13.60;;;14.60;99.90;;;;;;5018763;28;20056;-66
2022/05/24 08:20:51;;;;;;;16.48;13.10;;;14.70;99.90;;;;;;5025483;28;20541;-66
2022/05/24 08:23:21;;;;;;;17.17;13.18;;;14.70;99.90;;;;;;5009481;28;20053;-66
2022/05/24 08:25:46;;;;;;;;;;;14.80;99.90;;;;;;5053707;28;20053;-66
2022/05/24 08:28:12;;;;;;;19.85;14.23;;;14.90;99.90;;;;;;5006985;28;19978;-66
2022/05/24 08:30:39;;;;;;;19.55;13.13;;;15.00;99.90;;;;;;5013924;28;20501;-67
2022/05/24 08:33:05;;;;;;;19.17;14.48;;;15.10;99.90;;;;;;5000165;28;20052;-67
2022/05/24 08:35:36;;;;;;;14.93;13.25;;;15.20;99.90;;;;;;5029763;28;20037;-68
2022/05/24 08:38:03;;;;;;;15.30;12.35;;;15.40;99.90;;;;;;5012780;28;20050;-67
2022/05/24 08:40:30;;;;;;;16.20;12.80;;;15.30;99.90;;;;;;5056308;28;20069;-68
2022/05/24 08:43:20;;;;;;;19.58;12.68;;;15.30;99.90;;;;;;4999515;28;20071;-66
2022/05/24 08:48:51;;;;;;;14.25;11.55;;;15.20;99.90;;;;;;5037065;28;20117;-67
2022/05/24 08:51:24;;;;;;;15.98;11.40;;;15.20;99.90;;;;;;5021668;28;20056;-66
2022/05/24 08:53:53;;;;;;;12.70;10.55;;;15.20;99.90;;;;;;5041547;28;20064;-65
2022/05/24 08:56:36;;;;;;;13.18;10.25;;;15.30;99.90;;;;;;5021630;28;20536;-65
2022/05/24 08:59:21;;;;;;;14.75;10.43;;;15.20;99.90;;;;;;5025059;28;20076;-65
2022/05/24 09:01:48;;;;;;;12.07;9.65;;;15.20;99.90;;;;;;5017842;28;20497;-66
2022/05/24 09:04:14;;;;;;;15.02;11.43;;;15.50;99.90;;;;;;5043338;28;20056;-66
2022/05/24 09:07:03;;;;;;;11.48;9.60;;;15.70;99.90;;;;;;5019933;28;20075;-66
2022/05/24 09:09:31;;;;;;;13.10;9.35;;;15.90;99.90;;;;;;5036047;28;20120;-66
2022/05/24 09:12:25;;;;;;;12.65;9.20;;;16.10;99.90;;;;;;5040253;28;20041;-66
2022/05/24 09:15:17;;;;;;;11.38;8.38;;;16.20;99.90;;;;;;5009464;28;20357;-66
2022/05/24 09:17:51;;;;;;;10.82;7.90;;;16.20;99.90;;;;;;5030146;28;20285;-66
2022/05/24 09:20:33;;;;;;;12.10;8.10;;;16.20;99.90;;;;;;5030680;28;20402;-65
2022/05/24 09:23:10;;;;;;;12.00;7.65;;;16.00;99.90;;;;;;5031777;28;20721;-66
2022/05/24 09:25:36;;;;;;;10.27;7.65;;;16.00;99.90;;;;;;5045195;28;20466;-65
2022/05/24 09:28:02;;;;;;;10.75;6.50;;;16.10;99.90;;;;;;5009638;28;20118;-66
2022/05/24 09:30:31;;;;;;;8.05;6.82;;;16.30;99.90;;;;;;5019998;28;20057;-66
2022/05/24 09:33:18;;;;;;;8.70;7.07;;;16.00;99.90;;;;;;5032685;28;20057;-66
2022/05/24 09:35:44;;;;;;;8.38;6.38;;;15.80;99.90;;;;;;5044642;28;20076;-66
2022/05/24 09:38:16;;;;;;;9.55;7.00;;;15.90;99.90;;;;;;5034069;28;20107;-66
2022/05/24 09:41:02;;;;;;;8.13;6.28;;;16.00;99.90;;;;;;5025568;28;20049;-66
2022/05/24 09:43:33;;;;;;;10.73;6.90;;;16.10;99.90;;;;;;5024430;28;20084;-66
2022/05/24 09:46:02;;;;;;;7.22;6.22;;;16.00;99.90;;;;;;5025086;28;20049;-66
2022/05/24 09:48:30;;;;;;;9.57;6.20;;;15.90;99.90;;;;;;5035697;28;20099;-66
2022/05/24 09:50:58;;;;;;;9.57;6.60;;;15.60;99.90;;;;;;5045863;28;20064;-66
2022/05/24 09:53:30;;;;;;;8.13;6.57;;;15.60;99.90;;;;;;5011527;28;20072;-66
2022/05/24 09:56:26;;;;;;;8.55;5.60;;;15.50;99.90;;;;;;5051152;28;20057;-66
2022/05/24 09:58:58;;;;;;;11.32;7.65;;;15.40;99.90;;;;;;5035782;28;20067;-66
2022/05/24 10:01:36;;;;;;;9.07;8.27;;;15.50;99.90;;;;;;5040136;28;20045;-66
2022/05/24 10:04:23;;;;;;;11.23;7.45;;;15.40;99.90;;;;;;5040404;28;20045;-66
2022/05/24 10:07:28;;;;;;;11.38;7.75;;;15.60;99.90;;;;;;5019185;28;20321;-66
2022/05/24 10:10:15;;;;;;;8.85;6.68;;;15.70;99.90;;;;;;5026038;28;20064;-66
2022/05/24 10:13:24;;;;;;;10.43;7.45;;;15.80;99.90;;;;;;5027688;28;20422;-65
2022/05/24 10:16:12;;;;;;;8.98;7.57;;;16.00;99.90;;;;;;4956501;28;20047;-66
2022/05/24 10:19:11;;;;;;;8.80;6.78;;;15.90;99.90;;;;;;4943650;28;20050;-66
2022/05/24 10:22:03;;;;;;;8.00;6.13;;;16.00;99.90;;;;;;4959279;28;20051;-66
2022/05/24 10:24:49;;;;;;;12.90;6.88;;;16.10;99.90;;;;;;4964306;28;20131;-66
2022/05/24 10:27:39;;;;;;;6.95;5.13;;;16.00;99.90;;;;;;4940934;28;20093;-66
2022/05/24 10:30:07;;;;;;;;;;;15.90;99.90;;;;;;4928379;28;20055;-66
2022/05/24 10:39:18;;;;;;;5.47;4.75;;;16.20;99.90;;;;;;4958018;28;20065;-66
2022/05/24 10:41:53;;;;;;;4.18;2.85;;;16.40;99.90;;;;;;4921984;28;20248;-66
2022/05/24 10:44:40;;;;;;;2.85;2.13;;;16.30;99.90;;;;;;4935395;29;20066;-66
2022/05/24 10:47:39;;;;;;;5.28;2.72;;;16.30;99.90;;;;;;4947089;28;20050;-66
2022/05/24 10:50:13;;;;;;;3.97;2.60;;;16.40;99.90;;;;;;4947029;28;20111;-66
2022/05/24 10:52:50;;;;;;;4.38;2.53;;;16.40;99.90;;;;;;5003058;28;20068;-67
2022/05/24 10:55:19;;;;;;;5.25;2.90;;;16.40;99.90;;;;;;5046887;28;20328;-66
2022/05/24 10:57:56;;;;;;;3.40;2.67;;;16.20;99.90;;;;;;5032311;28;20042;-68
2022/05/24 11:00:50;;;;;;;5.38;3.40;;;16.20;99.90;;;;;;5034333;28;20069;-66
2022/05/24 11:03:17;;;;;;;5.00;3.22;;;16.10;99.90;;;;;;5014490;28;20630;-67
2022/05/24 11:05:50;;;;;;;4.82;2.97;;;15.70;99.90;;;;;;5028549;28;20095;-67
2022/05/24 11:08:33;;;;;;;7.40;3.80;;;15.50;99.90;;;;;;5014329;28;20128;-67
2022/05/24 11:11:27;;;;;;;6.93;3.90;;;15.40;99.90;;;;;;5023799;28;20157;-67
2022/05/24 11:14:11;;;;;;;4.30;2.83;;;15.10;99.90;;;;;;4956455;28;20117;-67
2022/05/24 11:16:43;;;;;;;5.32;3.80;;;14.90;99.90;;;;;;5021719;28;20049;-66
2022/05/24 11:19:14;;;;;;;4.05;2.88;;;14.50;99.90;;;;;;5045965;28;20361;-67
2022/05/24 11:21:48;;;;;;;2.33;2.13;;;14.30;99.90;;;;;;5021475;28;20050;-66
2022/05/24 11:24:39;;;;;;;2.28;1.85;;;14.40;99.90;;;;;;5011344;28;20049;-66
2022/05/24 11:27:06;;;;;;;3.42;2.30;;;14.10;99.90;;;;;;5020194;28;20104;-66
2022/05/24 11:29:51;;;;;;;2.03;1.83;;;14.20;99.90;;;;;;5012361;28;20064;-67
2022/05/24 11:33:05;;;;;;;2.15;1.98;;;14.10;99.90;;;;;;5023141;28;20099;-67
2022/05/24 11:35:39;;;;;;;3.75;2.17;;;13.90;99.90;;;;;;4987915;28;20058;-67
2022/05/24 11:38:16;;;;;;;2.33;2.03;;;13.70;99.90;;;;;;5007601;28;20134;-67
2022/05/24 11:40:54;;;;;;;2.22;2.03;;;13.70;99.90;;;;;;5023108;28;20710;-67
2022/05/24 11:43:35;;;;;;;2.78;2.47;;;13.80;99.90;;;;;;4990831;28;20063;-67
2022/05/24 11:46:28;;;;;;;3.45;2.60;;;13.80;99.90;;;;;;5024109;28;20125;-67
2022/05/24 11:48:56;;;;;;;3.17;2.60;;;14.00;99.90;;;;;;5004027;28;20053;-66
2022/05/24 11:51:46;;;;;;;3.67;2.92;;;14.00;99.90;;;;;;5027101;28;20064;-67
2022/05/24 11:54:27;;;;;;;5.40;3.40;;;13.90;99.90;;;;;;5023986;28;20088;-67
2022/05/24 11:56:53;;;;;;;3.53;2.72;;;14.00;99.90;;;;;;5020332;28;20053;-67
2022/05/24 11:59:40;;;;;;;4.22;3.13;;;14.10;99.90;;;;;;5021582;28;20076;-66
2022/05/24 12:02:26;;;;;;;5.22;3.28;;;14.00;99.90;;;;;;5012356;28;20049;-67
2022/05/24 12:08:04;;;;;;;4.68;3.22;;;14.00;99.90;;;;;;5011761;28;20106;-67
2022/05/24 12:11:06;;;;;;;3.90;3.00;;;14.30;99.90;;;;;;5030516;28;20061;-67
2022/05/24 12:13:55;;;;;;;4.55;2.70;;;14.70;99.90;;;;;;5018381;28;20108;-67
2022/05/24 12:16:47;;;;;;;8.50;2.67;;;14.80;99.90;;;;;;5028927;28;20062;-67
2022/05/24 12:19:34;;;;;;;3.92;2.35;;;14.90;99.90;;;;;;5022908;28;20064;-67
2022/05/24 12:22:06;;;;;;;4.20;2.00;;;15.10;99.90;;;;;;5022102;28;20045;-67
2022/05/24 12:24:41;;;;;;;6.55;2.70;;;15.20;99.90;;;;;;5026517;28;20045;-67
2022/05/24 12:27:24;;;;;;;4.22;2.47;;;15.30;99.90;;;;;;5020582;28;20298;-67
2022/05/24 12:29:52;;;;;;;4.38;2.90;;;15.40;99.90;;;;;;4991290;28;20149;-67
2022/05/24 12:32:22;;;;;;;3.70;2.42;;;15.60;99.90;;;;;;5021365;28;20041;-66
2022/05/24 12:34:48;;;;;;;3.38;2.20;;;15.70;99.90;;;;;;5015221;28;20125;-67
2022/05/24 12:37:26;;;;;;;3.28;2.25;;;15.90;99.90;;;;;;5019976;28;20127;-67
2022/05/24 12:40:06;;;;;;;7.32;3.42;;;15.90;99.90;;;;;;5027087;28;20068;-67
2022/05/24 12:42:32;;;;;;;4.15;2.60;;;16.10;99.90;;;;;;5002357;28;20516;-67
2022/05/24 12:45:01;;;;;;;4.07;2.33;;;16.20;99.90;;;;;;5010675;28;20067;-67
2022/05/24 12:47:27;;;;;;;3.50;2.38;;;16.30;99.90;;;;;;5038515;28;20056;-67
2022/05/24 12:49:57;;;;;;;3.83;2.28;;;16.40;99.90;;;;;;5027161;28;20053;-67
2022/05/24 12:52:24;;;;;;;;;;;16.40;99.90;;;;;;5023072;28;20052;-67
2022/05/24 12:54:51;;;;;;;3.80;2.30;;;16.40;99.90;;;;;;5028695;28;19928;-66
2022/05/24 12:57:18;;;;;;;3.33;2.30;;;16.80;99.90;;;;;;5023862;28;20057;-67
2022/05/24 12:59:52;;;;;;;2.38;2.00;;;16.90;99.90;;;;;;5041746;28;20180;-67
2022/05/24 13:02:31;;;;;;;4.43;2.22;;;16.70;99.90;;;;;;5010984;28;20053;-67
2022/05/24 13:05:01;;;;;;;5.15;1.80;;;16.50;99.90;;;;;;5010617;28;20060;-67
2022/05/24 13:07:39;;;;;;;5.10;1.70;;;16.20;99.90;;;;;;5037126;28;20060;-68
2022/05/24 13:10:19;;;;;;;4.72;2.00;;;15.50;99.90;;;;;;5041892;28;20060;-68
2022/05/24 13:13:05;;;;;;;3.67;1.52;;;14.80;99.90;;;;;;5020150;28;20041;-68
2022/05/24 13:15:44;;;;;;;1.88;1.45;;;14.30;99.90;;;;;;4994393;28;20191;-68
2022/05/24 13:18:15;;;;;;;4.55;1.83;;;14.00;99.90;;;;;;5010026;28;20136;-68
2022/05/24 13:20:46;;;;;;;2.10;1.63;;;14.10;99.90;;;;;;5052793;28;20105;-68
2022/05/24 13:23:15;;;;;;;3.05;1.58;;;14.20;99.90;;;;;;5029312;28;20049;-68
2022/05/24 13:26:17;;;;;;;3.60;2.20;;;14.20;99.90;;;;;;5037173;28;20049;-68
2022/05/24 13:28:46;;;;;;;3.75;1.98;;;14.20;99.90;;;;;;4934175;28;20119;-67
2022/05/24 13:34:29;;;;;;;3.08;2.20;;;14.30;99.90;;;;;;4941119;28;20113;-67
2022/05/24 13:37:16;;;;;;;2.70;1.88;;;14.70;99.90;;;;;;4927249;28;20188;-68
2022/05/24 13:39:44;;;;;;;5.38;2.20;;;14.70;99.90;;;;;;4926549;28;20051;-67
2022/05/24 13:42:16;;;;;;;4.28;2.55;;;14.90;99.90;;;;;;4931445;28;20055;-68